createdAt,value
2018-06-08T00:05:49.551Z,8.95
2018-06-08T00:08:17.826Z,8.58
2018-06-08T00:10:46.055Z,8.08
2018-06-08T00:13:14.026Z,7.03
2018-06-08T00:15:42.239Z,6.95
2018-06-08T00:18:10.512Z,6.92
2018-06-08T00:20:38.780Z,7.87
2018-06-08T00:23:07.044Z,8.25
2018-06-08T00:25:35.301Z,8.23
2018-06-08T00:28:03.544Z,7.65
2018-06-08T00:30:31.782Z,8.28
2018-06-08T00:33:00.011Z,7.87
2018-06-08T00:35:28.241Z,7.97
2018-06-08T00:37:56.475Z,8.60
2018-06-08T00:40:24.443Z,9.30
2018-06-08T00:42:52.685Z,9.38
2018-06-08T00:45:20.996Z,9.00
2018-06-08T00:47:49.268Z,8.98
2018-06-08T00:50:17.525Z,9.05
2018-06-08T00:52:45.727Z,8.23
2018-06-08T00:55:13.982Z,8.85
2018-06-08T00:57:42.212Z,9.45
2018-06-08T01:00:10.559Z,9.70
2018-06-08T01:02:38.760Z,8.58
2018-06-08T01:05:07.024Z,8.38
2018-06-08T01:07:35.266Z,7.95
2018-06-08T01:10:03.224Z,7.70
2018-06-08T01:12:31.474Z,8.00
2018-06-08T01:14:59.706Z,8.98
2018-06-08T01:17:27.928Z,8.98
2018-06-08T01:19:56.157Z,8.43
2018-06-08T01:22:24.376Z,8.73
2018-06-08T01:24:52.581Z,9.33
2018-06-08T01:27:20.809Z,10.03
2018-06-08T01:29:49.052Z,10.03
2018-06-08T01:32:17.267Z,10.03
2018-06-08T01:34:48.468Z,10.38
2018-06-08T01:37:16.655Z,9.73
2018-06-08T01:39:44.930Z,9.98
2018-06-08T01:42:13.272Z,10.28
2018-06-08T01:44:41.576Z,9.95
2018-06-08T01:47:09.960Z,9.80
2018-06-08T01:49:38.150Z,10.00
2018-06-08T01:52:06.385Z,9.33
2018-06-08T01:54:34.590Z,9.75
2018-06-08T01:57:02.841Z,8.90
2018-06-08T01:59:31.059Z,10.30
2018-06-08T02:01:59.259Z,9.40
2018-06-08T02:04:27.501Z,10.23
2018-06-08T02:06:55.746Z,11.63
2018-06-08T02:09:23.960Z,10.93
2018-06-08T02:11:52.210Z,10.65
2018-06-08T02:14:20.460Z,9.85
2018-06-08T02:16:48.712Z,10.23
2018-06-08T02:19:16.939Z,10.30
2018-06-08T02:21:45.190Z,10.95
2018-06-08T02:24:13.458Z,10.60
2018-06-08T02:26:41.703Z,10.43
2018-06-08T02:29:09.942Z,10.93
2018-06-08T02:31:39.255Z,10.63
2018-06-08T02:34:07.515Z,10.08
2018-06-08T02:36:35.745Z,9.83
2018-06-08T02:39:05.742Z,10.48
2018-06-08T02:41:33.977Z,10.32
2018-06-08T02:44:02.230Z,10.13
2018-06-08T02:46:30.506Z,10.98
2018-06-08T02:48:58.754Z,10.98
2018-06-08T02:51:27.037Z,10.05
2018-06-08T02:53:55.301Z,10.58
2018-06-08T02:56:23.541Z,10.05
2018-06-08T02:58:51.760Z,10.30
2018-06-08T03:01:20.013Z,9.70
2018-06-08T03:03:48.298Z,10.72
2018-06-08T03:06:16.520Z,11.60
2018-06-08T03:08:44.758Z,10.30
2018-06-08T03:11:12.961Z,10.13
2018-06-08T03:13:41.216Z,9.98
2018-06-08T03:16:09.449Z,10.88
2018-06-08T03:18:37.704Z,10.48
2018-06-08T03:21:05.987Z,10.70
2018-06-08T03:23:34.238Z,10.30
2018-06-08T03:26:02.512Z,10.38
2018-06-08T03:28:30.777Z,10.45
2018-06-08T03:30:59.079Z,10.05
2018-06-08T03:33:27.360Z,10.08
2018-06-08T03:35:55.620Z,9.23
2018-06-08T03:38:23.879Z,9.58
2018-06-08T03:40:52.148Z,9.63
2018-06-08T03:43:20.402Z,9.63
2018-06-08T03:45:48.675Z,9.75
2018-06-08T03:48:16.951Z,10.48
2018-06-08T03:50:45.192Z,10.28
2018-06-08T03:53:13.416Z,10.35
2018-06-08T03:55:41.667Z,11.33
2018-06-08T03:58:09.916Z,9.83
2018-06-08T04:00:38.174Z,10.10
2018-06-08T04:03:06.460Z,9.65
2018-06-08T04:05:34.724Z,10.63
2018-06-08T04:08:02.977Z,9.75
2018-06-08T04:10:31.068Z,9.83
2018-06-08T04:12:59.311Z,10.55
2018-06-08T04:15:27.561Z,9.65
2018-06-08T04:17:55.764Z,11.00
2018-06-08T04:20:23.970Z,9.88
2018-06-08T04:22:52.239Z,9.93
2018-06-08T04:25:27.028Z,10.55
2018-06-08T04:27:55.244Z,10.40
2018-06-08T04:30:23.498Z,9.95
2018-06-08T04:32:51.797Z,10.13
2018-06-08T04:35:19.998Z,9.40
2018-06-08T04:37:48.212Z,9.75
2018-06-08T04:40:16.430Z,10.72
2018-06-08T04:42:44.713Z,9.85
2018-06-08T04:45:12.966Z,9.98
2018-06-08T04:47:41.347Z,10.08
2018-06-08T04:50:09.605Z,9.48
2018-06-08T04:52:37.816Z,10.15
2018-06-08T04:55:06.038Z,9.65
2018-06-08T04:57:34.244Z,9.68
2018-06-08T05:00:02.495Z,10.20
2018-06-08T05:02:30.760Z,9.85
2018-06-08T05:04:59.000Z,10.03
2018-06-08T05:07:27.424Z,10.50
2018-06-08T05:09:55.658Z,11.30
2018-06-08T05:12:23.929Z,12.05
2018-06-08T05:14:52.208Z,12.93
2018-06-08T05:17:20.464Z,13.10
2018-06-08T05:19:48.793Z,10.65
2018-06-08T05:22:17.067Z,10.18
2018-06-08T05:24:45.323Z,12.25
2018-06-08T05:27:13.617Z,11.28
2018-06-08T05:29:41.874Z,10.70
2018-06-08T05:32:10.104Z,11.40
2018-06-08T05:34:38.408Z,10.50
2018-06-08T05:37:06.722Z,11.43
2018-06-08T05:39:35.179Z,9.53
2018-06-08T05:42:03.461Z,9.73
2018-06-08T05:44:31.760Z,9.88
2018-06-08T05:47:00.034Z,10.10
2018-06-08T05:49:28.312Z,10.50
2018-06-08T05:51:56.555Z,9.95
2018-06-08T05:54:24.836Z,10.48
2018-06-08T05:56:53.104Z,9.78
2018-06-08T05:59:21.345Z,10.75
2018-06-08T06:01:49.597Z,9.85
2018-06-08T06:04:17.889Z,11.28
2018-06-08T06:06:46.163Z,9.88
2018-06-08T06:09:14.439Z,10.35
2018-06-08T06:11:42.708Z,10.03
2018-06-08T06:14:11.034Z,9.48
2018-06-08T06:16:39.318Z,9.85
2018-06-08T06:19:07.636Z,9.55
2018-06-08T06:21:35.879Z,9.05
2018-06-08T06:24:04.094Z,9.30
2018-06-08T06:26:32.382Z,9.53
2018-06-08T06:29:00.650Z,9.30
2018-06-08T06:31:28.888Z,9.40
2018-06-08T06:33:57.178Z,10.18
2018-06-08T06:36:25.483Z,10.55
2018-06-08T06:38:53.758Z,9.65
2018-06-08T06:41:22.076Z,10.03
2018-06-08T06:43:50.337Z,8.18
2018-06-08T06:46:18.586Z,8.53
2018-06-08T06:48:46.820Z,10.00
2018-06-08T06:51:15.075Z,10.03
2018-06-08T06:53:43.312Z,10.00
2018-06-08T06:56:11.592Z,10.48
2018-06-08T06:58:39.870Z,9.23
2018-06-08T07:01:08.116Z,10.48
2018-06-08T07:03:36.416Z,8.58
2018-06-08T07:06:04.675Z,9.53
2018-06-08T07:08:32.910Z,12.10
2018-06-08T07:11:01.139Z,10.98
2018-06-08T07:13:29.428Z,11.10
2018-06-08T07:15:57.685Z,11.50
2018-06-08T07:18:25.928Z,11.95
2018-06-08T07:20:54.135Z,11.73
2018-06-08T07:23:22.385Z,11.83
2018-06-08T07:25:50.356Z,12.98
2018-06-08T07:28:18.633Z,11.30
2018-06-08T07:30:46.870Z,11.70
2018-06-08T07:33:15.144Z,13.70
2018-06-08T07:35:43.420Z,14.03
2018-06-08T07:38:11.664Z,14.05
2018-06-08T07:43:14.792Z,14.65
2018-06-08T07:45:43.066Z,13.50
2018-06-08T07:48:11.312Z,16.45
2018-06-08T07:50:41.639Z,15.88
2018-06-08T07:53:09.859Z,16.45
2018-06-08T07:55:38.321Z,17.42
2018-06-08T07:58:06.618Z,14.18
2018-06-08T08:00:38.635Z,15.72
2018-06-08T08:03:06.940Z,17.95
2018-06-08T08:05:35.832Z,17.05
2018-06-08T08:08:04.111Z,15.93
2018-06-08T08:10:35.979Z,16.25
2018-06-08T08:13:04.259Z,16.05
2018-06-08T08:15:33.764Z,13.68
2018-06-08T08:18:02.029Z,16.90
2018-06-08T08:20:30.312Z,16.73
2018-06-08T08:22:58.548Z,17.20
2018-06-08T08:25:27.130Z,15.85
2018-06-08T08:27:55.352Z,16.85
2018-06-08T08:30:23.615Z,16.73
2018-06-08T08:32:51.890Z,17.32
2018-06-08T08:35:20.135Z,16.25
2018-06-08T08:37:48.365Z,13.88
2018-06-08T08:40:16.632Z,12.30
2018-06-08T08:42:44.893Z,12.82
2018-06-08T08:45:12.947Z,11.38
2018-06-08T08:47:41.146Z,11.00
2018-06-08T08:50:09.136Z,11.65
2018-06-08T08:52:37.390Z,11.15
2018-06-08T08:55:05.712Z,12.05
2018-06-08T08:57:33.916Z,10.82
2018-06-08T09:00:02.164Z,10.70
2018-06-08T09:02:30.420Z,10.78
2018-06-08T09:04:58.415Z,10.15
2018-06-08T09:07:26.620Z,10.15
2018-06-08T09:09:54.854Z,10.20
2018-06-08T09:12:23.089Z,9.80
2018-06-08T09:14:51.335Z,10.98
2018-06-08T09:17:19.555Z,9.98
2018-06-08T09:19:47.824Z,10.40
2018-06-08T09:22:16.088Z,10.20
2018-06-08T09:24:44.336Z,9.85
2018-06-08T09:27:12.536Z,9.93
2018-06-08T09:29:40.776Z,10.63
2018-06-08T09:32:08.997Z,9.33
2018-06-08T09:34:37.188Z,10.08
2018-06-08T09:37:05.366Z,9.80
2018-06-08T09:39:33.638Z,10.20
2018-06-08T09:42:01.901Z,9.08
2018-06-08T09:44:30.166Z,9.30
2018-06-08T09:46:58.403Z,8.75
2018-06-08T09:49:26.765Z,8.85
2018-06-08T09:51:55.135Z,9.13
2018-06-08T09:54:23.365Z,7.75
2018-06-08T09:56:51.650Z,7.03
2018-06-08T09:59:19.927Z,7.10
2018-06-08T10:01:48.170Z,8.60
2018-06-08T10:04:16.391Z,9.40
2018-06-08T10:06:51.140Z,9.08
2018-06-08T10:09:19.083Z,7.65
2018-06-08T10:11:47.419Z,8.00
2018-06-08T10:14:15.655Z,6.53
2018-06-08T10:16:43.939Z,6.12
2018-06-08T10:19:12.150Z,6.85
2018-06-08T10:21:40.374Z,7.55
2018-06-08T10:24:08.828Z,6.47
2018-06-08T10:26:37.053Z,6.87
2018-06-08T10:29:05.296Z,7.55
2018-06-08T10:31:33.550Z,6.67
2018-06-08T10:34:01.861Z,6.53
2018-06-08T10:36:30.037Z,6.72
2018-06-08T10:38:58.261Z,6.37
2018-06-08T10:41:26.500Z,5.97
2018-06-08T10:43:54.723Z,6.67
2018-06-08T10:46:22.992Z,6.50
2018-06-08T10:48:51.273Z,6.35
2018-06-08T10:51:19.547Z,5.70
2018-06-08T10:53:47.770Z,5.72
2018-06-08T10:56:16.233Z,6.15
2018-06-08T10:58:44.437Z,5.53
2018-06-08T11:01:12.674Z,5.75
2018-06-08T11:03:40.922Z,5.95
2018-06-08T11:06:09.215Z,5.47
2018-06-08T11:08:37.450Z,5.55
2018-06-08T11:11:05.737Z,5.97
2018-06-08T11:13:33.982Z,5.85
2018-06-08T11:16:02.229Z,5.85
2018-06-08T11:18:30.459Z,6.65
2018-06-08T11:21:06.203Z,6.53
2018-06-08T11:23:34.472Z,6.33
2018-06-08T11:26:02.677Z,6.20
2018-06-08T11:28:30.928Z,5.53
2018-06-08T11:30:59.151Z,5.80
2018-06-08T11:33:27.075Z,6.10
2018-06-08T11:35:55.288Z,5.97
2018-06-08T11:38:23.507Z,5.65
2018-06-08T11:40:51.713Z,5.53
2018-06-08T11:43:19.910Z,5.62
2018-06-08T11:45:48.146Z,4.95
2018-06-08T11:48:16.337Z,6.00
2018-06-08T11:50:44.523Z,5.60
2018-06-08T11:53:12.829Z,5.92
2018-06-08T11:55:41.053Z,5.08
2018-06-08T11:58:09.323Z,5.30
2018-06-08T12:00:37.552Z,5.70
2018-06-08T12:03:05.769Z,5.08
2018-06-08T12:05:34.015Z,5.15
2018-06-08T12:08:02.226Z,5.40
2018-06-08T12:10:30.715Z,5.17
2018-06-08T12:12:58.986Z,5.20
2018-06-08T12:15:27.245Z,4.85
2018-06-08T12:17:55.507Z,4.67
2018-06-08T12:20:23.800Z,4.83
2018-06-08T12:22:53.334Z,4.95
2018-06-08T12:25:21.663Z,4.80
2018-06-08T12:27:49.959Z,5.12
2018-06-08T12:30:18.232Z,5.03
2018-06-08T12:32:46.537Z,4.87
2018-06-08T12:35:14.793Z,4.65
2018-06-08T12:37:44.078Z,4.55
2018-06-08T12:40:12.334Z,4.78
2018-06-08T12:42:40.570Z,4.45
2018-06-08T12:45:08.822Z,5.08
2018-06-08T12:47:37.057Z,6.20
2018-06-08T12:50:05.277Z,4.90
2018-06-08T12:52:33.513Z,4.80
2018-06-08T12:55:01.752Z,4.60
2018-06-08T12:57:29.963Z,5.25
2018-06-08T12:59:58.165Z,4.78
2018-06-08T13:02:26.415Z,4.60
2018-06-08T13:04:54.655Z,4.78
2018-06-08T13:07:22.604Z,4.40
2018-06-08T13:09:57.313Z,4.75
2018-06-08T13:12:25.565Z,4.65
2018-06-08T13:14:53.848Z,3.98
2018-06-08T13:17:22.367Z,4.65
2018-06-08T13:19:50.610Z,4.45
2018-06-08T13:22:18.841Z,4.08
2018-06-08T13:24:47.171Z,4.90
2018-06-08T13:27:15.434Z,4.80
2018-06-08T13:29:43.711Z,4.62
2018-06-08T13:32:11.946Z,4.28
2018-06-08T13:34:40.183Z,4.80
2018-06-08T13:37:08.380Z,4.72
2018-06-08T13:39:38.288Z,4.47
2018-06-08T13:42:06.520Z,4.10
2018-06-08T13:44:34.776Z,3.85
2018-06-08T13:47:03.136Z,4.40
2018-06-08T13:49:31.386Z,4.83
2018-06-08T13:51:59.663Z,4.12
2018-06-08T13:54:27.626Z,4.10
2018-06-08T13:56:56.159Z,4.28
2018-06-08T13:59:24.433Z,5.35
2018-06-08T14:01:52.678Z,5.10
2018-06-08T14:04:20.968Z,4.58
2018-06-08T14:06:49.194Z,5.40
2018-06-08T14:09:17.420Z,4.87
2018-06-08T14:11:45.644Z,4.95
2018-06-08T14:14:13.915Z,5.42
2018-06-08T14:16:42.166Z,5.17
2018-06-08T14:19:10.397Z,4.80
2018-06-08T14:21:38.634Z,4.72
2018-06-08T14:24:06.881Z,4.80
2018-06-08T14:26:35.121Z,4.90
2018-06-08T14:29:03.338Z,4.80
2018-06-08T14:31:31.550Z,4.87
2018-06-08T14:33:59.764Z,4.60
2018-06-08T14:36:28.010Z,5.30
2018-06-08T14:38:56.250Z,4.85
2018-06-08T14:41:24.538Z,4.72
2018-06-08T14:43:52.754Z,4.90
2018-06-08T14:46:21.024Z,5.12
2018-06-08T14:48:49.209Z,4.80
2018-06-08T14:51:17.505Z,4.80
2018-06-08T14:53:45.722Z,5.10
2018-06-08T14:56:13.918Z,4.85
2018-06-08T14:58:42.132Z,4.60
2018-06-08T15:01:10.368Z,4.37
2018-06-08T15:03:38.600Z,4.72
2018-06-08T15:06:06.821Z,4.85
2018-06-08T15:08:35.034Z,4.60
2018-06-08T15:11:03.297Z,4.25
2018-06-08T15:13:31.492Z,4.17
2018-06-08T15:15:59.741Z,4.95
2018-06-08T15:18:27.971Z,4.47
2018-06-08T15:20:56.188Z,5.10
2018-06-08T15:23:24.429Z,4.72
2018-06-08T15:25:52.640Z,4.87
2018-06-08T15:28:20.851Z,5.00
2018-06-08T15:30:49.055Z,4.70
2018-06-08T15:33:17.297Z,5.00
2018-06-08T15:35:45.539Z,4.75
2018-06-08T15:38:13.944Z,5.50
2018-06-08T15:40:42.177Z,6.83
2018-06-08T15:43:10.411Z,6.30
2018-06-08T15:45:38.623Z,5.35
2018-06-08T15:48:06.815Z,5.60
2018-06-08T15:50:35.065Z,6.30
2018-06-08T15:53:04.195Z,6.22
2018-06-08T15:55:33.262Z,6.80
2018-06-08T15:58:01.469Z,5.58
2018-06-08T16:00:29.702Z,6.08
2018-06-08T16:02:57.916Z,5.78
2018-06-08T16:05:26.127Z,5.50
2018-06-08T16:07:54.363Z,6.28
2018-06-08T16:10:22.585Z,7.90
2018-06-08T16:12:50.848Z,7.33
2018-06-08T16:15:19.064Z,6.78
2018-06-08T16:17:47.286Z,6.50
2018-06-08T16:20:15.848Z,6.50
2018-06-08T16:22:44.044Z,6.42
2018-06-08T16:25:12.252Z,6.28
2018-06-08T16:27:40.451Z,6.60
2018-06-08T16:30:08.717Z,6.80
2018-06-08T16:32:36.922Z,7.50
2018-06-08T16:35:05.177Z,8.90
2018-06-08T16:37:33.402Z,8.95
2018-06-08T16:40:01.636Z,8.25
2018-06-08T16:42:30.026Z,8.50
2018-06-08T16:44:58.242Z,7.75
2018-06-08T16:47:26.582Z,9.25
2018-06-08T16:49:54.792Z,9.80
2018-06-08T16:52:23.041Z,10.43
2018-06-08T16:54:51.295Z,9.65
2018-06-08T16:57:19.573Z,9.63
2018-06-08T16:59:47.805Z,9.10
2018-06-08T17:02:16.050Z,14.13
2018-06-08T17:04:44.311Z,11.10
2018-06-08T17:07:12.529Z,10.32
2018-06-08T17:09:40.748Z,10.60
2018-06-08T17:12:08.984Z,10.32
2018-06-08T17:14:37.208Z,9.58
2018-06-08T17:17:05.465Z,9.63
2018-06-08T17:19:33.684Z,10.80
2018-06-08T17:22:01.924Z,9.45
2018-06-08T17:24:30.143Z,9.15
2018-06-08T17:26:58.376Z,9.20
2018-06-08T17:29:26.617Z,9.28
2018-06-08T17:31:54.869Z,9.03
2018-06-08T17:34:23.170Z,8.08
2018-06-08T17:36:51.371Z,8.20
2018-06-08T17:39:19.657Z,6.92
2018-06-08T17:41:47.941Z,7.17
2018-06-08T17:44:18.696Z,6.95
2018-06-08T17:46:46.950Z,7.58
2018-06-08T17:49:15.193Z,7.20
2018-06-08T17:51:43.452Z,7.30
2018-06-08T17:54:11.696Z,7.60
2018-06-08T17:56:39.950Z,7.40
2018-06-08T17:59:08.196Z,7.47
2018-06-08T18:01:36.674Z,7.97
2018-06-08T18:04:04.926Z,7.20
2018-06-08T18:06:33.159Z,6.80
2018-06-08T18:09:01.401Z,7.40
2018-06-08T18:11:29.670Z,6.85
2018-06-08T18:13:57.935Z,7.53
2018-06-08T18:16:26.278Z,7.22
2018-06-08T18:18:54.592Z,7.05
2018-06-08T18:21:22.817Z,6.80
2018-06-08T18:23:51.085Z,7.28
2018-06-08T18:26:19.324Z,7.55
2018-06-08T18:28:47.599Z,7.37
2018-06-08T18:31:15.867Z,6.90
2018-06-08T18:33:44.125Z,6.95
2018-06-08T18:36:12.465Z,6.95
2018-06-08T18:38:40.720Z,7.55
2018-06-08T18:41:08.938Z,7.47
2018-06-08T18:43:37.190Z,7.05
2018-06-08T18:46:05.453Z,7.35
2018-06-08T18:48:33.725Z,7.10
2018-06-08T18:51:01.960Z,7.50
2018-06-08T18:53:30.174Z,7.08
2018-06-08T18:55:58.466Z,6.67
2018-06-08T18:58:26.719Z,6.78
2018-06-08T19:00:55.006Z,6.55
2018-06-08T19:03:24.282Z,6.53
2018-06-08T19:05:52.537Z,7.12
2018-06-08T19:08:20.810Z,7.15
2018-06-08T19:10:49.037Z,7.50
2018-06-08T19:13:17.332Z,6.53
2018-06-08T19:15:45.572Z,6.45
2018-06-08T19:18:13.948Z,6.83
2018-06-08T19:20:42.232Z,6.90
2018-06-08T19:23:10.470Z,6.70
2018-06-08T19:25:38.744Z,6.35
2018-06-08T19:28:06.776Z,6.72
2018-06-08T19:30:35.037Z,6.70
2018-06-08T19:33:06.954Z,6.75
2018-06-08T19:35:35.193Z,6.78
2018-06-08T19:38:03.496Z,6.58
2018-06-08T19:40:31.891Z,7.35
2018-06-08T19:43:00.153Z,6.58
2018-06-08T19:45:28.496Z,6.92
2018-06-08T19:47:56.710Z,6.20
2018-06-08T19:50:25.002Z,5.72
2018-06-08T19:52:53.261Z,5.62
2018-06-08T19:55:21.997Z,5.60
2018-06-08T19:57:50.259Z,5.62
2018-06-08T20:00:18.554Z,5.47
2018-06-08T20:02:46.854Z,5.30
2018-06-08T20:05:21.864Z,5.40
2018-06-08T20:07:50.208Z,5.92
2018-06-08T20:10:18.743Z,5.58
2018-06-08T20:12:47.049Z,5.53
2018-06-08T20:15:16.166Z,6.03
2018-06-08T20:17:44.435Z,5.42
2018-06-08T20:20:12.650Z,5.60
2018-06-08T20:22:40.891Z,5.42
2018-06-08T20:25:09.263Z,5.47
2018-06-08T20:27:38.891Z,5.42
2018-06-08T20:30:08.714Z,5.50
2018-06-08T20:32:38.349Z,5.62
2018-06-08T20:35:06.868Z,5.03
2018-06-08T20:37:35.144Z,5.28
2018-06-08T20:40:03.707Z,5.40
2018-06-08T20:42:32.011Z,5.87
2018-06-08T20:45:00.235Z,5.58
2018-06-08T20:47:30.446Z,5.85
2018-06-08T20:49:58.753Z,5.97
2018-06-08T20:52:27.033Z,5.67
2018-06-08T20:54:55.364Z,5.42
2018-06-08T20:57:27.733Z,5.45
2018-06-08T20:59:55.935Z,5.15
2018-06-08T21:02:24.351Z,5.92
2018-06-08T21:04:52.547Z,4.87
2018-06-08T21:07:21.341Z,5.10
2018-06-08T21:09:49.656Z,4.45
2018-06-08T21:12:17.944Z,5.35
2018-06-08T21:14:46.189Z,4.67
2018-06-08T21:17:14.459Z,5.12
2018-06-08T21:19:42.727Z,4.60
2018-06-08T21:25:03.195Z,5.00
2018-06-08T21:27:31.235Z,4.72
2018-06-08T21:29:59.472Z,4.75
2018-06-08T21:32:27.737Z,4.55
2018-06-08T21:34:55.975Z,5.05
2018-06-08T21:37:24.385Z,4.62
2018-06-08T21:39:52.647Z,4.85
2018-06-08T21:42:20.919Z,4.50
2018-06-08T21:44:49.147Z,4.30
2018-06-08T21:47:17.412Z,4.20
2018-06-08T21:49:45.636Z,4.60
2018-06-08T21:52:13.842Z,4.35
2018-06-08T21:54:42.074Z,5.25
2018-06-08T21:57:10.333Z,4.58
2018-06-08T21:59:38.586Z,5.53
2018-06-08T22:02:13.997Z,5.05
2018-06-08T22:04:42.256Z,5.37
2018-06-08T22:07:10.554Z,5.15
2018-06-08T22:09:38.791Z,5.37
2018-06-08T22:12:07.068Z,5.40
2018-06-08T22:14:35.320Z,4.70
2018-06-08T22:17:03.615Z,4.90
2018-06-08T22:19:31.887Z,4.72
2018-06-08T22:22:00.157Z,4.60
2018-06-08T22:24:28.419Z,4.62
2018-06-08T22:26:56.660Z,4.33
2018-06-08T22:29:24.918Z,4.72
2018-06-08T22:31:53.172Z,4.80
2018-06-08T22:34:21.415Z,4.50
2018-06-08T22:36:49.712Z,5.00
2018-06-08T22:39:17.984Z,4.50
2018-06-08T22:41:46.251Z,4.58
2018-06-08T22:44:14.689Z,4.37
2018-06-08T22:46:42.979Z,4.08
2018-06-08T22:49:11.277Z,4.67
2018-06-08T22:51:39.527Z,4.40
2018-06-08T22:54:07.766Z,4.47
2018-06-08T22:56:36.026Z,4.45
2018-06-08T22:59:04.305Z,4.80
2018-06-08T23:01:32.629Z,4.75
2018-06-08T23:04:00.892Z,4.83
2018-06-08T23:06:29.128Z,4.45
2018-06-08T23:08:57.402Z,5.00
2018-06-08T23:11:25.799Z,4.72
2018-06-08T23:13:53.982Z,5.03
2018-06-08T23:16:22.214Z,5.20
2018-06-08T23:18:50.454Z,4.97
2018-06-08T23:21:18.730Z,5.00
2018-06-08T23:23:47.000Z,4.12
2018-06-08T23:26:15.262Z,4.55
2018-06-08T23:28:43.489Z,4.60
2018-06-08T23:31:11.820Z,4.58
2018-06-08T23:33:40.024Z,4.95
2018-06-08T23:36:11.063Z,5.00
2018-06-08T23:38:39.250Z,4.72
2018-06-08T23:41:07.522Z,4.65
2018-06-08T23:43:35.822Z,4.45
2018-06-08T23:46:04.088Z,5.12
2018-06-08T23:48:32.345Z,5.10
2018-06-08T23:51:00.587Z,5.08
2018-06-08T23:53:28.840Z,5.15
2018-06-08T23:55:57.092Z,4.60
2018-06-08T23:58:25.310Z,4.95
